createdAt,value
2023-01-23T01:16:17.720Z,7.12
2023-01-23T01:18:50.922Z,6.95
2023-01-23T01:21:24.383Z,6.37
2023-01-23T01:23:56.735Z,6.60
2023-01-23T01:26:31.508Z,6.00
2023-01-23T01:29:04.073Z,6.87
2023-01-23T01:31:36.882Z,6.65
2023-01-23T01:34:09.332Z,6.47
2023-01-23T01:36:41.934Z,6.15
2023-01-23T01:39:14.322Z,5.80
2023-01-23T01:41:47.381Z,7.05
2023-01-23T01:44:23.654Z,6.15
2023-01-23T01:46:56.185Z,6.03
2023-01-23T01:49:32.585Z,6.05
2023-01-23T01:52:09.425Z,6.40
2023-01-23T01:54:50.682Z,6.12
2023-01-23T01:57:36.980Z,6.08
2023-01-23T02:00:19.858Z,5.97
2023-01-23T02:02:59.578Z,5.60
2023-01-23T02:05:39.936Z,6.05
2023-01-23T02:08:37.924Z,5.85
2023-01-23T02:11:10.712Z,5.87
2023-01-23T02:13:43.691Z,6.05
2023-01-23T02:16:24.552Z,5.97
2023-01-23T02:19:03.889Z,5.87
2023-01-23T02:21:36.391Z,5.87
2023-01-23T02:24:35.019Z,5.72
2023-01-23T02:27:08.544Z,5.92
2023-01-23T02:29:48.127Z,5.80
2023-01-23T02:32:22.467Z,4.85
2023-01-23T02:34:58.269Z,5.53
2023-01-23T02:37:33.640Z,5.50
2023-01-23T02:40:08.045Z,6.10
2023-01-23T02:42:43.332Z,5.92
2023-01-23T02:45:17.902Z,5.85
2023-01-23T02:47:50.601Z,5.28
2023-01-23T02:50:23.039Z,5.35
2023-01-23T02:52:57.400Z,5.62
2023-01-23T02:58:24.395Z,5.42
2023-01-23T03:00:56.764Z,4.90
2023-01-23T03:03:30.927Z,6.08
2023-01-23T03:06:06.134Z,6.40
2023-01-23T03:08:40.710Z,5.35
2023-01-23T03:11:14.246Z,5.20
2023-01-23T03:13:48.615Z,5.25
2023-01-23T03:16:21.236Z,5.78
2023-01-23T03:18:55.017Z,5.92
2023-01-23T03:21:27.812Z,6.08
2023-01-23T03:24:01.741Z,5.20
2023-01-23T03:26:34.418Z,5.65
2023-01-23T03:29:24.606Z,6.65
2023-01-23T03:31:57.102Z,6.33
2023-01-23T03:34:30.769Z,6.22
2023-01-23T03:37:03.678Z,5.92
2023-01-23T03:39:56.193Z,6.35
2023-01-23T03:42:29.450Z,6.65
2023-01-23T03:45:02.327Z,6.22
2023-01-23T03:47:36.320Z,6.17
2023-01-23T03:50:11.701Z,5.85
2023-01-23T03:52:44.355Z,6.93
2023-01-23T03:55:17.292Z,7.83
2023-01-23T03:57:50.264Z,6.53
2023-01-23T04:00:25.498Z,6.97
2023-01-23T04:03:02.711Z,6.60
2023-01-23T04:05:35.516Z,7.60
2023-01-23T04:08:08.715Z,6.37
2023-01-23T04:10:42.029Z,6.90
2023-01-23T04:13:17.272Z,6.83
2023-01-23T04:15:50.002Z,7.45
2023-01-23T04:18:22.544Z,7.42
2023-01-23T04:20:55.795Z,6.90
2023-01-23T04:23:28.389Z,6.78
2023-01-23T04:26:01.242Z,6.95
2023-01-23T04:28:33.966Z,7.70
2023-01-23T04:31:07.011Z,6.83
2023-01-23T04:33:40.357Z,7.42
2023-01-23T04:36:13.808Z,8.05
2023-01-23T04:38:46.110Z,7.35
2023-01-23T04:44:00.248Z,7.47
2023-01-23T04:46:33.287Z,8.40
2023-01-23T04:49:07.382Z,8.40
2023-01-23T04:51:41.683Z,7.90
2023-01-23T04:54:14.416Z,8.63
2023-01-23T04:56:47.331Z,8.85
2023-01-23T04:59:21.751Z,9.15
2023-01-23T05:01:55.664Z,8.73
2023-01-23T05:04:29.367Z,8.43
2023-01-23T05:07:01.672Z,7.75
2023-01-23T05:09:35.295Z,25.75
2023-01-23T05:12:08.486Z,9.20
2023-01-23T05:14:42.421Z,8.80
2023-01-23T05:17:14.877Z,7.85
2023-01-23T05:19:48.981Z,7.92
2023-01-23T05:22:24.014Z,7.78
2023-01-23T05:24:57.541Z,7.75
2023-01-23T05:27:31.764Z,7.85
2023-01-23T05:30:04.485Z,7.62
2023-01-23T05:32:38.753Z,7.47
2023-01-23T05:37:51.765Z,8.10
2023-01-23T05:40:26.336Z,7.62
2023-01-23T05:43:12.495Z,7.53
2023-01-23T05:46:04.941Z,7.83
2023-01-23T05:48:44.956Z,7.85
2023-01-23T05:51:17.977Z,8.08
2023-01-23T05:53:50.896Z,7.15
2023-01-23T05:56:23.354Z,7.33
2023-01-23T05:59:00.947Z,6.50
2023-01-23T06:01:35.754Z,7.30
2023-01-23T06:04:08.200Z,25.52
2023-01-23T06:06:42.270Z,9.68
2023-01-23T06:09:14.741Z,8.78
2023-01-23T06:11:47.916Z,7.80
2023-01-23T06:14:20.596Z,7.10
2023-01-23T06:16:53.288Z,6.78
2023-01-23T06:19:26.281Z,7.87
2023-01-23T06:21:58.939Z,8.25
2023-01-23T06:24:33.150Z,6.60
2023-01-23T06:29:49.815Z,7.20
2023-01-23T06:32:23.684Z,7.40
2023-01-23T06:34:56.353Z,7.03
2023-01-23T06:37:29.348Z,7.47
2023-01-23T06:40:03.098Z,7.08
2023-01-23T06:42:36.215Z,6.90
2023-01-23T06:45:10.657Z,6.42
2023-01-23T06:50:16.339Z,7.05
2023-01-23T06:52:49.127Z,6.72
2023-01-23T06:55:24.284Z,7.45
2023-01-23T06:57:57.054Z,6.75
2023-01-23T07:00:29.924Z,8.03
2023-01-23T07:03:04.428Z,7.78
2023-01-23T07:05:43.108Z,6.80
2023-01-23T07:08:16.219Z,7.42
2023-01-23T07:10:51.069Z,7.25
2023-01-23T07:13:23.572Z,7.42
2023-01-23T07:15:57.093Z,7.47
2023-01-23T07:18:30.532Z,7.92
2023-01-23T07:21:06.509Z,8.28
2023-01-23T07:23:39.041Z,6.92
2023-01-23T07:26:12.283Z,7.15
2023-01-23T07:28:44.755Z,7.17
2023-01-23T07:31:17.378Z,6.12
2023-01-23T07:33:50.671Z,6.25
2023-01-23T07:36:23.109Z,6.97
2023-01-23T07:38:56.451Z,7.00
2023-01-23T07:41:28.861Z,6.60
2023-01-23T07:44:01.561Z,6.65
2023-01-23T07:46:34.165Z,6.10
2023-01-23T07:49:07.758Z,6.47
2023-01-23T07:51:40.530Z,6.87
2023-01-23T07:54:13.282Z,6.35
2023-01-23T07:56:46.480Z,6.45
2023-01-23T07:59:19.442Z,5.65
2023-01-23T08:01:52.811Z,5.90
2023-01-23T08:04:25.722Z,6.10
2023-01-23T08:06:58.091Z,5.53
2023-01-23T08:09:30.477Z,6.08
2023-01-23T08:12:03.281Z,5.92
2023-01-23T10:28:23.030Z,7.55
2023-01-23T10:31:00.335Z,7.53
2023-01-23T10:33:40.563Z,6.95
2023-01-23T10:36:27.383Z,6.80
2023-01-23T10:39:20.294Z,7.28
2023-01-23T10:42:01.505Z,7.17
2023-01-23T10:44:27.222Z,7.05
2023-01-23T10:47:03.786Z,7.53
2023-01-23T10:49:39.136Z,7.53
2023-01-23T10:52:33.548Z,8.15
2023-01-23T10:55:10.142Z,7.35
2023-01-23T10:57:49.408Z,7.42
2023-01-23T11:00:47.161Z,7.78
2023-01-23T11:03:29.342Z,8.00
2023-01-23T11:06:15.427Z,6.62
2023-01-23T11:08:55.095Z,7.65
2023-01-23T11:11:30.761Z,7.37
2023-01-23T11:14:16.959Z,7.53
2023-01-23T11:16:51.156Z,7.35
2023-01-23T11:19:23.840Z,6.90
2023-01-23T11:22:02.451Z,7.72
2023-01-23T11:24:40.724Z,7.20
2023-01-23T11:27:26.761Z,7.65
2023-01-23T11:30:28.350Z,7.53
2023-01-23T11:33:04.893Z,8.30
2023-01-23T11:36:06.556Z,7.90
2023-01-23T11:38:52.740Z,8.13
2023-01-23T11:41:32.741Z,7.28
2023-01-23T11:44:09.999Z,7.15
2023-01-23T11:46:59.106Z,6.92
2023-01-23T11:50:11.702Z,6.58
2023-01-23T11:53:18.072Z,7.53
2023-01-23T11:56:04.046Z,7.80
2023-01-23T11:59:18.895Z,8.85
2023-01-23T12:02:26.682Z,9.13
2023-01-23T12:05:43.381Z,7.87
2023-01-23T12:12:08.131Z,8.05
2023-01-23T12:14:48.750Z,8.33
2023-01-23T12:17:33.005Z,8.60
2023-01-23T12:20:26.766Z,7.42
2023-01-23T12:23:22.286Z,7.62
2023-01-23T12:26:14.125Z,8.88
2023-01-23T12:29:18.984Z,8.35
2023-01-23T12:32:18.043Z,7.87
2023-01-23T12:35:15.137Z,8.85
2023-01-23T12:38:03.951Z,9.10
2023-01-23T12:40:59.481Z,9.68
2023-01-23T12:43:58.280Z,9.58
2023-01-23T12:46:53.031Z,9.10
2023-01-23T12:49:40.885Z,8.93
2023-01-23T12:52:35.594Z,9.78
2023-01-23T12:55:27.839Z,8.73
2023-01-23T12:58:08.966Z,9.68
2023-01-23T13:00:49.265Z,9.63
2023-01-23T13:03:44.900Z,9.28
2023-01-23T13:09:31.261Z,9.48
2023-01-23T13:12:22.494Z,10.00
2023-01-23T13:15:12.734Z,9.75
2023-01-23T13:17:53.005Z,11.12
2023-01-23T13:20:53.509Z,10.50
2023-01-23T13:23:32.713Z,10.68
2023-01-23T13:26:28.342Z,10.70
2023-01-23T13:29:04.218Z,10.90
2023-01-23T13:31:49.237Z,11.08
2023-01-23T13:34:27.208Z,11.85
2023-01-23T13:37:03.357Z,11.63
2023-01-23T13:39:37.536Z,12.15
2023-01-23T13:42:39.339Z,11.88
2023-01-23T13:45:28.297Z,13.00
2023-01-23T13:48:31.893Z,12.53
2023-01-23T13:51:19.975Z,14.55
2023-01-23T13:54:11.317Z,13.70
2023-01-23T13:56:45.621Z,12.10
2023-01-23T13:59:32.003Z,11.35
2023-01-23T14:02:51.515Z,13.13
2023-01-23T14:05:30.444Z,12.88
2023-01-23T14:08:07.675Z,12.03
2023-01-23T14:10:43.972Z,11.03
2023-01-23T14:13:20.573Z,10.65
2023-01-23T14:16:12.094Z,10.63
2023-01-23T14:18:56.474Z,12.33
2023-01-23T14:21:41.071Z,11.10
2023-01-23T14:24:22.330Z,10.93
2023-01-23T14:27:07.775Z,9.95
2023-01-23T14:29:38.910Z,11.03
2023-01-23T14:32:27.345Z,11.12
2023-01-23T14:35:00.737Z,12.07
2023-01-23T14:37:33.722Z,10.93
2023-01-23T14:43:13.790Z,11.83
2023-01-23T14:45:49.767Z,12.25
2023-01-23T14:48:22.407Z,11.43
2023-01-23T14:51:27.801Z,11.33
2023-01-23T14:54:10.466Z,22.87
2023-01-23T14:56:41.753Z,40.67
2023-01-23T14:59:35.157Z,17.90
2023-01-23T15:02:34.438Z,16.73
2023-01-23T15:05:34.881Z,12.93
2023-01-23T15:08:21.422Z,11.68
2023-01-23T15:10:53.903Z,14.05
2023-01-23T15:13:37.082Z,12.15
2023-01-23T15:16:19.860Z,12.53
2023-01-23T15:19:20.086Z,11.60
2023-01-23T15:21:52.409Z,10.72
2023-01-23T15:24:49.679Z,10.60
2023-01-23T15:27:36.600Z,10.20
2023-01-23T15:30:42.823Z,11.45
2023-01-23T15:33:31.135Z,11.33
2023-01-23T15:36:09.300Z,11.33
2023-01-23T15:38:41.636Z,10.40
2023-01-23T15:41:17.299Z,10.20
2023-01-23T15:43:48.234Z,11.88
2023-01-23T15:46:21.379Z,12.63
2023-01-23T15:48:54.863Z,11.22
2023-01-23T15:51:27.274Z,12.68
2023-01-23T15:54:00.694Z,11.93
2023-01-23T15:56:35.204Z,10.93
2023-01-23T15:59:16.659Z,11.50
2023-01-23T16:01:49.367Z,13.08
2023-01-23T16:04:22.184Z,11.55
2023-01-23T16:06:54.581Z,11.83
2023-01-23T16:09:32.629Z,13.95
2023-01-23T16:12:05.590Z,14.07
2023-01-23T16:14:38.366Z,17.80
2023-01-23T16:17:16.688Z,14.15
2023-01-23T16:19:45.099Z,17.50
2023-01-23T19:21:15.974Z,17.75
2023-01-23T19:23:55.082Z,16.80
2023-01-23T19:26:53.983Z,16.50
2023-01-23T19:29:26.583Z,17.80
2023-01-23T19:32:05.473Z,16.90
2023-01-23T19:34:35.329Z,16.27
2023-01-23T19:37:08.474Z,17.57
2023-01-23T19:39:42.011Z,17.23
2023-01-23T19:42:16.598Z,16.57
2023-01-23T19:44:49.530Z,17.00
2023-01-23T19:47:23.076Z,16.17
2023-01-23T19:49:57.149Z,15.68
2023-01-23T19:52:31.730Z,15.70
2023-01-23T19:55:04.477Z,17.55
2023-01-23T19:57:37.478Z,15.72
2023-01-23T20:00:16.537Z,16.87
2023-01-23T20:02:49.362Z,32.63
2023-01-23T20:05:22.539Z,19.25
2023-01-23T20:10:28.240Z,15.85
2023-01-23T20:13:01.119Z,15.53
2023-01-23T20:15:33.978Z,15.40
2023-01-23T20:18:07.470Z,14.38
2023-01-23T20:20:40.089Z,16.75
2023-01-23T20:23:12.868Z,15.58
2023-01-23T20:25:45.733Z,14.60
2023-01-23T20:28:18.871Z,14.85
2023-01-23T20:30:53.017Z,14.50
2023-01-23T20:33:26.356Z,14.70
2023-01-23T20:35:58.929Z,14.18
2023-01-23T20:38:31.386Z,13.98
2023-01-23T20:41:10.045Z,13.53
2023-01-23T20:43:46.033Z,13.62
2023-01-23T20:46:19.605Z,14.30
2023-01-23T20:48:52.343Z,13.55
2023-01-23T20:51:24.929Z,14.63
2023-01-23T20:53:58.294Z,13.48
2023-01-23T20:56:31.106Z,15.18
2023-01-23T20:59:21.711Z,13.30
2023-01-23T21:02:13.446Z,15.43
2023-01-23T21:04:46.107Z,14.60
2023-01-23T21:07:20.688Z,14.28
2023-01-23T21:09:53.511Z,14.18
2023-01-23T21:12:26.021Z,13.38
2023-01-23T21:14:58.521Z,13.60
2023-01-23T21:17:31.076Z,15.63
2023-01-23T21:20:04.156Z,13.72
2023-01-23T21:22:36.915Z,12.40
2023-01-23T21:25:10.408Z,12.88
2023-01-23T21:27:43.628Z,13.55
2023-01-23T21:30:16.591Z,13.93
2023-01-23T21:32:50.379Z,13.32
2023-01-23T21:35:23.605Z,12.37
2023-01-23T21:37:56.562Z,12.13
2023-01-23T21:40:29.173Z,12.95
2023-01-23T21:43:01.762Z,15.70
2023-01-23T21:45:34.423Z,13.13
2023-01-23T21:48:07.424Z,12.70
2023-01-23T21:50:42.825Z,12.85
2023-01-23T21:53:15.410Z,13.50
2023-01-23T21:55:54.444Z,13.38
2023-01-23T21:58:27.262Z,13.10
2023-01-23T22:01:23.198Z,13.65
2023-01-23T22:03:57.453Z,13.10
2023-01-23T22:06:30.295Z,12.88
2023-01-23T22:09:03.133Z,13.72
2023-01-23T22:11:36.450Z,13.43
2023-01-23T22:14:09.217Z,14.78
2023-01-23T22:16:50.245Z,13.95
2023-01-23T22:19:25.047Z,14.07
2023-01-23T22:21:57.375Z,13.28
2023-01-23T22:24:30.561Z,16.73
2023-01-23T22:27:04.254Z,14.13
2023-01-23T22:29:36.682Z,14.30
2023-01-23T22:32:09.304Z,12.98
2023-01-23T22:34:41.995Z,14.13
2023-01-23T22:37:14.579Z,13.80
2023-01-23T22:39:47.762Z,13.48
2023-01-23T22:42:21.127Z,12.60
2023-01-23T22:44:53.485Z,14.58
2023-01-23T22:47:26.001Z,13.50
2023-01-23T22:49:58.605Z,13.60
2023-01-23T22:52:31.055Z,12.98
2023-01-23T22:55:03.949Z,13.98
2023-01-23T22:57:36.830Z,13.22
2023-01-23T23:00:15.434Z,13.48
2023-01-23T23:02:47.792Z,13.95
2023-01-23T23:05:20.760Z,11.97
2023-01-23T23:07:53.982Z,14.00
2023-01-23T23:10:27.479Z,13.40
2023-01-23T23:13:00.061Z,13.08
2023-01-23T23:15:33.405Z,14.25
2023-01-23T23:18:06.248Z,13.98
2023-01-23T23:20:39.952Z,13.90
2023-01-23T23:23:12.748Z,11.95
2023-01-23T23:25:45.091Z,13.60
2023-01-23T23:28:17.683Z,14.65
2023-01-23T23:30:50.179Z,13.18
2023-01-23T23:33:22.830Z,13.90
2023-01-23T23:35:56.374Z,12.63
2023-01-23T23:38:28.689Z,12.70
2023-01-23T23:43:51.491Z,13.50
2023-01-23T23:46:24.036Z,12.33
2023-01-23T23:48:56.637Z,13.08
2023-01-23T23:51:30.037Z,12.78
2023-01-23T23:54:02.899Z,12.88
2023-01-23T23:56:35.483Z,11.97
2023-01-23T23:59:17.236Z,12.78
